^^
Station Historical Data
 
Daily Summary for January 20, 2018 Units:  Both    English   Metric
« Previous Day
Next Day »
Daily Weekly Monthly Yearly Custom
  Current: High: Low: Average:
Temperature: 55.2 °F /  12.9 °C 55.9 °F /  13.3 °C 55.0 °F /  12.8 °C 55.4 °F /  13 °C
Dew Point: 52.3 °F /  11.3 °C 53.2 °F /  11.8 °C 52.0 °F /  11.1 °C 52.7 °F /  11.5 °C
Humidity: 90% 92% 89% 91%
Wind Speed: 2.9mph /  4.7km/h 6.9mph /  11.1km/h - 3.3mph /  5.3km/h
Wind Gust: 5.0mph /  8km/h 11.0mph /  17.7km/h - -
WindNNW - - ENE
Pressure: 30.25 in /  1024.3 hPa 30.26 in /  1024.6 hPa 30.18 in /  1021.9 hPa -
Precipitation: 0.00 in /  0 mm      
Historical Graphs
 
 
Tabular Data for January 20, 2018
Time Temperature Dew Point Pressure Wind Wind Speed Wind Gust Humidity Rainfall Rate (Hourly) solar Conditions
00:03 55.6 °F /  13.1 °C 52.3 °F /  11.3 °C 30.25in /  1024.3hPa NNE 2.9mph /  4.7km/h 4.0mph /  6.4km/h 89% 0.00in /  0mm meteobridge W/m2
00:09 55.6 °F /  13.1 °C 52.7 °F /  11.5 °C 30.25in /  1024.3hPa NNE 0.9mph /  1.4km/h 4.0mph /  6.4km/h 90% 0.00in /  0mm meteobridge W/m2
00:14 55.6 °F /  13.1 °C 52.7 °F /  11.5 °C 30.26in /  1024.6hPa Calm   1.0mph /  1.6km/h 90% 0.00in /  0mm meteobridge W/m2
00:19 55.4 °F /  13 °C 52.2 °F /  11.2 °C 30.25in /  1024.3hPa NNE 2.9mph /  4.7km/h 3.0mph /  4.8km/h 89% 0.00in /  0mm meteobridge W/m2
00:24 55.2 °F /  12.9 °C 52.0 °F /  11.1 °C 30.25in /  1024.3hPa NNE 2.0mph /  3.2km/h 3.0mph /  4.8km/h 89% 0.00in /  0mm meteobridge W/m2
00:29 55.2 °F /  12.9 °C 52.3 °F /  11.3 °C 30.25in /  1024.3hPa NNE 2.9mph /  4.7km/h 3.0mph /  4.8km/h 90% 0.00in /  0mm meteobridge W/m2
00:34 55.0 °F /  12.8 °C 52.2 °F /  11.2 °C 30.25in /  1024.3hPa NNE 2.9mph /  4.7km/h 3.0mph /  4.8km/h 90% 0.00in /  0mm meteobridge W/m2
00:39 55.0 °F /  12.8 °C 52.2 °F /  11.2 °C 30.25in /  1024.3hPa NNE 2.0mph /  3.2km/h 3.0mph /  4.8km/h 90% 0.00in /  0mm meteobridge W/m2
00:45 55.0 °F /  12.8 °C 52.2 °F /  11.2 °C 30.25in /  1024.3hPa Calm   2.0mph /  3.2km/h 90% 0.00in /  0mm meteobridge W/m2
00:50 55.0 °F /  12.8 °C 52.2 °F /  11.2 °C 30.25in /  1024.3hPa NNE 2.0mph /  3.2km/h 3.0mph /  4.8km/h 90% 0.00in /  0mm meteobridge W/m2
00:55 55.0 °F /  12.8 °C 52.2 °F /  11.2 °C 30.25in /  1024.3hPa NNE 2.0mph /  3.2km/h 3.0mph /  4.8km/h 90% 0.00in /  0mm meteobridge W/m2
01:00 55.0 °F /  12.8 °C 52.2 °F /  11.2 °C 30.24in /  1023.9hPa NNE 4.0mph /  6.4km/h 4.0mph /  6.4km/h 90% 0.00in /  0mm meteobridge W/m2
01:06 55.0 °F /  12.8 °C 52.2 °F /  11.2 °C 30.24in /  1023.9hPa North 4.0mph /  6.4km/h 4.0mph /  6.4km/h 90% 0.00in /  0mm meteobridge W/m2
01:11 55.2 °F /  12.9 °C 52.3 °F /  11.3 °C 30.23in /  1023.6hPa NNE 2.9mph /  4.7km/h 5.0mph /  8km/h 90% 0.00in /  0mm meteobridge W/m2
01:16 55.2 °F /  12.9 °C 52.3 °F /  11.3 °C 30.23in /  1023.6hPa NNE 2.9mph /  4.7km/h 5.0mph /  8km/h 90% 0.00in /  0mm meteobridge W/m2
01:21 55.4 °F /  13 °C 52.5 °F /  11.4 °C 30.23in /  1023.6hPa ENE 2.9mph /  4.7km/h 4.0mph /  6.4km/h 90% 0.00in /  0mm meteobridge W/m2
01:26 55.6 °F /  13.1 °C 52.7 °F /  11.5 °C 30.23in /  1023.6hPa North 2.9mph /  4.7km/h 5.0mph /  8km/h 90% 0.00in /  0mm meteobridge W/m2
01:31 55.6 °F /  13.1 °C 52.7 °F /  11.5 °C 30.23in /  1023.6hPa North 2.9mph /  4.7km/h 3.0mph /  4.8km/h 90% 0.00in /  0mm meteobridge W/m2
01:36 55.8 °F /  13.2 °C 52.9 °F /  11.6 °C 30.23in /  1023.6hPa North 2.0mph /  3.2km/h 4.0mph /  6.4km/h 90% 0.00in /  0mm meteobridge W/m2
01:41 55.8 °F /  13.2 °C 53.2 °F /  11.8 °C 30.23in /  1023.6hPa North 0.9mph /  1.4km/h 4.0mph /  6.4km/h 91% 0.00in /  0mm meteobridge W/m2
01:46 55.8 °F /  13.2 °C 53.2 °F /  11.8 °C 30.23in /  1023.6hPa North 2.9mph /  4.7km/h 3.0mph /  4.8km/h 91% 0.00in /  0mm meteobridge W/m2
01:52 55.8 °F /  13.2 °C 53.2 °F /  11.8 °C 30.23in /  1023.6hPa North 0.9mph /  1.4km/h 3.0mph /  4.8km/h 91% 0.00in /  0mm meteobridge W/m2
01:57 55.8 °F /  13.2 °C 53.2 °F /  11.8 °C 30.24in /  1023.9hPa North 2.0mph /  3.2km/h 3.0mph /  4.8km/h 91% 0.00in /  0mm meteobridge W/m2
02:02 55.6 °F /  13.1 °C 53.1 °F /  11.7 °C 30.24in /  1023.9hPa North 2.0mph /  3.2km/h 2.0mph /  3.2km/h 91% 0.00in /  0mm meteobridge W/m2
02:07 55.6 °F /  13.1 °C 53.1 °F /  11.7 °C 30.23in /  1023.6hPa North 0.9mph /  1.4km/h 4.0mph /  6.4km/h 91% 0.00in /  0mm meteobridge W/m2
02:12 55.6 °F /  13.1 °C 53.1 °F /  11.7 °C 30.22in /  1023.2hPa NE 4.0mph /  6.4km/h 5.0mph /  8km/h 91% 0.00in /  0mm meteobridge W/m2
02:17 55.8 °F /  13.2 °C 52.9 °F /  11.6 °C 30.21in /  1022.9hPa ENE 2.0mph /  3.2km/h 4.0mph /  6.4km/h 90% 0.00in /  0mm meteobridge W/m2
02:22 55.8 °F /  13.2 °C 52.9 °F /  11.6 °C 30.21in /  1022.9hPa NE 2.0mph /  3.2km/h 4.0mph /  6.4km/h 90% 0.00in /  0mm meteobridge W/m2
02:27 55.8 °F /  13.2 °C 52.9 °F /  11.6 °C 30.22in /  1023.2hPa NE 2.0mph /  3.2km/h 4.0mph /  6.4km/h 90% 0.00in /  0mm meteobridge W/m2
02:32 55.9 °F /  13.3 °C 53.1 °F /  11.7 °C 30.22in /  1023.2hPa NE 2.9mph /  4.7km/h 4.0mph /  6.4km/h 90% 0.00in /  0mm meteobridge W/m2
02:37 55.9 °F /  13.3 °C 53.1 °F /  11.7 °C 30.21in /  1022.9hPa NE 2.9mph /  4.7km/h 4.0mph /  6.4km/h 90% 0.00in /  0mm meteobridge W/m2
02:42 55.9 °F /  13.3 °C 52.7 °F /  11.5 °C 30.21in /  1022.9hPa NNE 2.9mph /  4.7km/h 5.0mph /  8km/h 89% 0.00in /  0mm meteobridge W/m2
02:47 55.9 °F /  13.3 °C 53.1 °F /  11.7 °C 30.22in /  1023.2hPa North 2.9mph /  4.7km/h 4.0mph /  6.4km/h 90% 0.00in /  0mm meteobridge W/m2
02:53 55.9 °F /  13.3 °C 53.1 °F /  11.7 °C 30.22in /  1023.2hPa NNE 4.0mph /  6.4km/h 5.0mph /  8km/h 90% 0.00in /  0mm meteobridge W/m2
02:58 55.8 °F /  13.2 °C 52.9 °F /  11.6 °C 30.23in /  1023.6hPa North 2.0mph /  3.2km/h 4.0mph /  6.4km/h 90% 0.00in /  0mm meteobridge W/m2
03:03 55.8 °F /  13.2 °C 52.9 °F /  11.6 °C 30.23in /  1023.6hPa North 2.0mph /  3.2km/h 3.0mph /  4.8km/h 90% 0.00in /  0mm meteobridge W/m2
03:08 55.8 °F /  13.2 °C 52.9 °F /  11.6 °C 30.23in /  1023.6hPa NNE 4.9mph /  7.9km/h 5.0mph /  8km/h 90% 0.00in /  0mm meteobridge W/m2
03:13 55.6 °F /  13.1 °C 53.1 °F /  11.7 °C 30.22in /  1023.2hPa North 6.9mph /  11.1km/h 8.0mph /  12.9km/h 91% 0.00in /  0mm meteobridge W/m2
03:18 55.6 °F /  13.1 °C 53.1 °F /  11.7 °C 30.22in /  1023.2hPa NNE 4.0mph /  6.4km/h 5.0mph /  8km/h 91% 0.00in /  0mm meteobridge W/m2
03:23 55.6 °F /  13.1 °C 53.1 °F /  11.7 °C 30.22in /  1023.2hPa NNE 4.9mph /  7.9km/h 6.0mph /  9.7km/h 91% 0.00in /  0mm meteobridge W/m2
03:28 55.6 °F /  13.1 °C 53.1 °F /  11.7 °C 30.22in /  1023.2hPa NNE 4.0mph /  6.4km/h 7.0mph /  11.3km/h 91% 0.00in /  0mm meteobridge W/m2
03:33 55.6 °F /  13.1 °C 53.1 °F /  11.7 °C 30.22in /  1023.2hPa NNE 2.9mph /  4.7km/h 5.0mph /  8km/h 91% 0.00in /  0mm meteobridge W/m2
03:38 55.6 °F /  13.1 °C 53.1 °F /  11.7 °C 30.22in /  1023.2hPa NE 2.9mph /  4.7km/h 4.0mph /  6.4km/h 91% 0.00in /  0mm meteobridge W/m2
03:43 55.4 °F /  13 °C 52.9 °F /  11.6 °C 30.22in /  1023.2hPa North 2.9mph /  4.7km/h 5.0mph /  8km/h 91% 0.00in /  0mm meteobridge W/m2
03:48 55.2 °F /  12.9 °C 52.7 °F /  11.5 °C 30.22in /  1023.2hPa North 2.9mph /  4.7km/h 5.0mph /  8km/h 91% 0.00in /  0mm meteobridge W/m2
03:53 55.2 °F /  12.9 °C 52.7 °F /  11.5 °C 30.22in /  1023.2hPa NNE 2.9mph /  4.7km/h 5.0mph /  8km/h 91% 0.00in /  0mm meteobridge W/m2
03:58 55.2 °F /  12.9 °C 52.7 °F /  11.5 °C 30.22in /  1023.2hPa NNE 2.0mph /  3.2km/h 4.0mph /  6.4km/h 91% 0.00in /  0mm meteobridge W/m2
04:03 55.0 °F /  12.8 °C 52.5 °F /  11.4 °C 30.21in /  1022.9hPa NE 4.0mph /  6.4km/h 5.0mph /  8km/h 91% 0.00in /  0mm meteobridge W/m2
04:08 55.0 °F /  12.8 °C 52.5 °F /  11.4 °C 30.21in /  1022.9hPa NNE 2.9mph /  4.7km/h 5.0mph /  8km/h 91% 0.00in /  0mm meteobridge W/m2
04:14 55.0 °F /  12.8 °C 52.5 °F /  11.4 °C 30.21in /  1022.9hPa North 2.9mph /  4.7km/h 4.0mph /  6.4km/h 91% 0.00in /  0mm meteobridge W/m2
04:19 55.2 °F /  12.9 °C 52.9 °F /  11.6 °C 30.21in /  1022.9hPa NNE 4.9mph /  7.9km/h 7.0mph /  11.3km/h 92% 0.00in /  0mm meteobridge W/m2
04:24 55.2 °F /  12.9 °C 52.7 °F /  11.5 °C 30.21in /  1022.9hPa NNE 4.0mph /  6.4km/h 6.0mph /  9.7km/h 91% 0.00in /  0mm meteobridge W/m2
04:29 55.2 °F /  12.9 °C 52.7 °F /  11.5 °C 30.21in /  1022.9hPa NNE 4.0mph /  6.4km/h 5.0mph /  8km/h 91% 0.00in /  0mm meteobridge W/m2
04:34 55.2 °F /  12.9 °C 52.7 °F /  11.5 °C 30.22in /  1023.2hPa NNE 2.9mph /  4.7km/h 4.0mph /  6.4km/h 91% 0.00in /  0mm meteobridge W/m2
04:39 55.2 °F /  12.9 °C 52.7 °F /  11.5 °C 30.21in /  1022.9hPa NNE 4.0mph /  6.4km/h 7.0mph /  11.3km/h 91% 0.00in /  0mm meteobridge W/m2
04:44 55.0 °F /  12.8 °C 52.5 °F /  11.4 °C 30.21in /  1022.9hPa NNE 4.9mph /  7.9km/h 7.0mph /  11.3km/h 91% 0.00in /  0mm meteobridge W/m2
04:49 55.0 °F /  12.8 °C 52.5 °F /  11.4 °C 30.21in /  1022.9hPa NE 2.9mph /  4.7km/h 5.0mph /  8km/h 91% 0.00in /  0mm meteobridge W/m2
04:55 55.0 °F /  12.8 °C 52.7 °F /  11.5 °C 30.21in /  1022.9hPa NNE 2.9mph /  4.7km/h 7.0mph /  11.3km/h 92% 0.00in /  0mm meteobridge W/m2
05:00 55.2 °F /  12.9 °C 52.9 °F /  11.6 °C 30.22in /  1023.2hPa North 6.0mph /  9.7km/h 9.0mph /  14.5km/h 92% 0.00in /  0mm meteobridge W/m2
05:10 55.0 °F /  12.8 °C 52.5 °F /  11.4 °C 30.20in /  1022.6hPa ENE 2.9mph /  4.7km/h 5.0mph /  8km/h 91% 0.00in /  0mm meteobridge W/m2
05:15 55.0 °F /  12.8 °C 52.5 °F /  11.4 °C 30.19in /  1022.2hPa East 4.0mph /  6.4km/h 7.0mph /  11.3km/h 91% 0.00in /  0mm meteobridge W/m2
05:20 55.0 °F /  12.8 °C 52.5 °F /  11.4 °C 30.18in /  1021.9hPa East 4.0mph /  6.4km/h 7.0mph /  11.3km/h 91% 0.00in /  0mm meteobridge W/m2
05:25 55.0 °F /  12.8 °C 52.5 °F /  11.4 °C 30.21in /  1022.9hPa North 2.9mph /  4.7km/h 8.0mph /  12.9km/h 91% 0.00in /  0mm meteobridge W/m2
05:30 55.0 °F /  12.8 °C 52.5 °F /  11.4 °C 30.19in /  1022.2hPa ENE 4.0mph /  6.4km/h 7.0mph /  11.3km/h 91% 0.00in /  0mm meteobridge W/m2
05:35 55.2 °F /  12.9 °C 52.7 °F /  11.5 °C 30.19in /  1022.2hPa NE 2.9mph /  4.7km/h 9.0mph /  14.5km/h 91% 0.00in /  0mm meteobridge W/m2
05:40 55.4 °F /  13 °C 52.9 °F /  11.6 °C 30.21in /  1022.9hPa NNE 2.0mph /  3.2km/h 5.0mph /  8km/h 91% 0.00in /  0mm meteobridge W/m2
05:45 55.4 °F /  13 °C 52.9 °F /  11.6 °C 30.21in /  1022.9hPa North 4.0mph /  6.4km/h 8.0mph /  12.9km/h 91% 0.00in /  0mm meteobridge W/m2
05:50 55.4 °F /  13 °C 52.9 °F /  11.6 °C 30.21in /  1022.9hPa NNE 4.9mph /  7.9km/h 8.0mph /  12.9km/h 91% 0.00in /  0mm meteobridge W/m2
05:55 55.4 °F /  13 °C 52.5 °F /  11.4 °C 30.21in /  1022.9hPa North 4.9mph /  7.9km/h 9.0mph /  14.5km/h 90% 0.00in /  0mm meteobridge W/m2
06:00 55.6 °F /  13.1 °C 53.1 °F /  11.7 °C 30.22in /  1023.2hPa North 0.9mph /  1.4km/h 3.0mph /  4.8km/h 91% 0.00in /  0mm meteobridge W/m2
06:05 55.6 °F /  13.1 °C 53.1 °F /  11.7 °C 30.23in /  1023.6hPa North 4.9mph /  7.9km/h 8.0mph /  12.9km/h 91% 0.00in /  0mm meteobridge W/m2
06:10 55.4 °F /  13 °C 52.5 °F /  11.4 °C 30.23in /  1023.6hPa North 2.0mph /  3.2km/h 7.0mph /  11.3km/h 90% 0.00in /  0mm meteobridge W/m2
06:16 55.4 °F /  13 °C 52.5 °F /  11.4 °C 30.23in /  1023.6hPa NNW 4.0mph /  6.4km/h 9.0mph /  14.5km/h 90% 0.00in /  0mm meteobridge W/m2
06:21 55.2 °F /  12.9 °C 52.3 °F /  11.3 °C 30.23in /  1023.6hPa North 2.9mph /  4.7km/h 8.0mph /  12.9km/h 90% 0.00in /  0mm meteobridge W/m2
06:26 55.2 °F /  12.9 °C 52.7 °F /  11.5 °C 30.24in /  1023.9hPa North 2.9mph /  4.7km/h 9.0mph /  14.5km/h 91% 0.00in /  0mm meteobridge W/m2
06:31 55.2 °F /  12.9 °C 52.3 °F /  11.3 °C 30.24in /  1023.9hPa North 2.9mph /  4.7km/h 10.0mph /  16.1km/h 90% 0.00in /  0mm meteobridge W/m2
06:36 55.4 °F /  13 °C 52.9 °F /  11.6 °C 30.24in /  1023.9hPa NNE 6.9mph /  11.1km/h 8.0mph /  12.9km/h 91% 0.00in /  0mm meteobridge W/m2
06:41 55.4 °F /  13 °C 52.5 °F /  11.4 °C 30.23in /  1023.6hPa NE 6.0mph /  9.7km/h 8.0mph /  12.9km/h 90% 0.00in /  0mm meteobridge W/m2
06:46 55.4 °F /  13 °C 52.5 °F /  11.4 °C 30.24in /  1023.9hPa North 4.9mph /  7.9km/h 11.0mph /  17.7km/h 90% 0.00in /  0mm meteobridge W/m2
06:51 55.4 °F /  13 °C 52.5 °F /  11.4 °C 30.24in /  1023.9hPa NNW 2.9mph /  4.7km/h 9.0mph /  14.5km/h 90% 0.00in /  0mm meteobridge W/m2
06:56 55.4 °F /  13 °C 52.5 °F /  11.4 °C 30.24in /  1023.9hPa North 4.9mph /  7.9km/h 9.0mph /  14.5km/h 90% 0.00in /  0mm meteobridge W/m2
07:01 55.4 °F /  13 °C 52.5 °F /  11.4 °C 30.24in /  1023.9hPa North 6.9mph /  11.1km/h 8.0mph /  12.9km/h 90% 0.00in /  0mm meteobridge W/m2
07:06 55.2 °F /  12.9 °C 52.3 °F /  11.3 °C 30.24in /  1023.9hPa North 6.0mph /  9.7km/h 9.0mph /  14.5km/h 90% 0.00in /  0mm meteobridge W/m2
07:11 55.2 °F /  12.9 °C 52.3 °F /  11.3 °C 30.24in /  1023.9hPa NE 6.9mph /  11.1km/h 9.0mph /  14.5km/h 90% 0.00in /  0mm meteobridge W/m2
07:16 55.0 °F /  12.8 °C 52.2 °F /  11.2 °C 30.24in /  1023.9hPa NE 2.9mph /  4.7km/h 5.0mph /  8km/h 90% 0.00in /  0mm meteobridge W/m2
07:21 55.0 °F /  12.8 °C 52.2 °F /  11.2 °C 30.24in /  1023.9hPa NE 4.0mph /  6.4km/h 6.0mph /  9.7km/h 90% 0.00in /  0mm meteobridge W/m2
07:26 55.2 °F /  12.9 °C 52.3 °F /  11.3 °C 30.24in /  1023.9hPa NNE 4.9mph /  7.9km/h 6.0mph /  9.7km/h 90% 0.00in /  0mm meteobridge W/m2
07:32 55.0 °F /  12.8 °C 52.2 °F /  11.2 °C 30.25in /  1024.3hPa NNE 4.9mph /  7.9km/h 5.0mph /  8km/h 90% 0.00in /  0mm meteobridge W/m2
07:37 55.2 °F /  12.9 °C 52.3 °F /  11.3 °C 30.25in /  1024.3hPa NNW 2.9mph /  4.7km/h 5.0mph /  8km/h 90% 0.00in /  0mm meteobridge W/m2
Juneau County Weather
Compliments of Weather Underground - 2.25 mb